createdAt,value
2022-12-23T00:00:25.668Z,45.72
2022-12-23T00:03:20.837Z,39.78
2022-12-23T00:05:53.161Z,41.97
2022-12-23T00:08:27.312Z,44.67
2022-12-23T00:11:08.251Z,52.33
2022-12-23T00:13:53.291Z,51.53
2022-12-23T00:16:25.859Z,49.30
2022-12-23T00:19:01.329Z,49.22
2022-12-23T00:21:33.651Z,46.72
2022-12-23T00:24:06.379Z,46.05
2022-12-23T00:26:38.558Z,46.28
2022-12-23T00:29:11.251Z,47.63
2022-12-23T00:31:43.531Z,48.75
2022-12-23T00:34:18.696Z,47.42
2022-12-23T00:36:51.072Z,49.95
2022-12-23T00:39:35.729Z,48.15
2022-12-23T00:42:39.667Z,46.17
2022-12-23T00:45:18.631Z,49.35
2022-12-23T00:48:03.855Z,46.70
2022-12-23T00:50:40.888Z,63.35
2022-12-23T00:53:13.069Z,42.55
2022-12-23T00:55:46.248Z,44.42
2022-12-23T00:58:18.315Z,43.30
2022-12-23T01:01:15.691Z,36.75
2022-12-23T01:04:00.122Z,47.78
2022-12-23T01:06:35.782Z,52.47
2022-12-23T01:09:07.931Z,46.92
2022-12-23T01:11:40.334Z,46.78
2022-12-23T01:14:13.082Z,45.53
2022-12-23T01:16:45.633Z,44.13
2022-12-23T01:19:17.822Z,44.10
2022-12-23T01:21:52.849Z,48.88
2022-12-23T02:56:56.237Z,63.38
2022-12-23T02:59:32.724Z,66.35
2022-12-23T03:02:05.669Z,73.20
2022-12-23T03:04:38.639Z,67.68
2022-12-23T03:07:18.928Z,64.65
2022-12-23T03:10:06.628Z,62.40
2022-12-23T03:13:03.825Z,62.65
2022-12-23T03:15:44.896Z,68.38
2022-12-23T03:18:26.891Z,64.97
2022-12-23T03:21:06.850Z,63.63
2022-12-23T03:23:43.936Z,65.85
2022-12-23T03:26:20.969Z,66.78
2022-12-23T03:29:15.714Z,65.32
2022-12-23T03:31:48.794Z,63.88
2022-12-23T03:34:25.437Z,69.32
2022-12-23T03:37:00.658Z,65.15
2022-12-23T03:39:36.171Z,64.80
2022-12-23T03:42:18.428Z,62.55
2022-12-23T03:45:36.286Z,66.05
2022-12-23T03:47:54.002Z,64.85
2022-12-23T03:50:27.950Z,75.38
2022-12-23T03:53:02.976Z,70.25
2022-12-23T03:55:39.807Z,72.63
2022-12-23T03:58:19.496Z,67.38
2022-12-23T04:01:00.888Z,65.38
2022-12-23T04:03:40.084Z,60.40
2022-12-23T04:06:18.595Z,65.63
2022-12-23T04:08:52.916Z,70.90
2022-12-23T04:11:25.297Z,63.83
2022-12-23T04:13:57.407Z,64.90
2022-12-23T04:16:33.038Z,63.05
2022-12-23T04:19:05.098Z,67.53
2022-12-23T04:21:37.177Z,77.80
2022-12-23T04:24:09.998Z,75.60
2022-12-23T04:26:42.234Z,73.57
2022-12-23T04:29:14.132Z,74.20
2022-12-23T04:31:49.087Z,85.43
2022-12-23T04:34:21.021Z,79.25
2022-12-23T04:36:53.351Z,71.97
2022-12-23T04:39:25.373Z,67.85
2022-12-23T04:41:57.637Z,75.38
2022-12-23T04:44:29.699Z,71.75
2022-12-23T04:47:04.841Z,77.53
2022-12-23T04:49:36.733Z,88.63
2022-12-23T04:52:09.167Z,77.75
2022-12-23T04:54:46.011Z,87.88
2022-12-23T04:57:41.496Z,83.45
2022-12-23T05:00:14.779Z,83.53
2022-12-23T05:02:49.903Z,81.88
2022-12-23T05:05:21.779Z,92.47
2022-12-23T05:07:54.828Z,89.82
2022-12-23T05:10:26.935Z,77.72
2022-12-23T05:12:59.471Z,95.20
2022-12-23T05:15:33.385Z,98.22
2022-12-23T05:18:08.568Z,97.07
2022-12-23T05:20:40.626Z,106.15
2022-12-23T05:23:13.176Z,105.85
2022-12-23T05:25:45.057Z,105.78
2022-12-23T05:28:17.111Z,98.35
2022-12-23T05:30:49.272Z,95.57
2022-12-23T05:33:24.152Z,98.80
2022-12-23T05:35:56.154Z,92.82
2022-12-23T05:38:29.757Z,87.75
2022-12-23T05:41:01.878Z,95.97
2022-12-23T05:43:34.180Z,79.97
2022-12-23T05:46:06.136Z,88.03
2022-12-23T05:48:41.097Z,88.43
2022-12-23T05:51:12.867Z,92.22
2022-12-23T05:53:59.102Z,92.30
2022-12-23T05:56:31.055Z,88.15
2022-12-23T05:59:03.221Z,86.88
2022-12-23T06:01:35.220Z,86.78
2022-12-23T06:04:10.432Z,89.57
2022-12-23T06:06:42.249Z,88.38
2022-12-23T06:09:14.740Z,92.35
2022-12-23T06:11:49.535Z,101.93
2022-12-23T06:14:26.829Z,112.10
2022-12-23T06:17:00.826Z,116.75
2022-12-23T06:19:35.818Z,101.57
2022-12-23T06:22:07.657Z,90.75
2022-12-23T06:24:40.269Z,107.15
2022-12-23T06:27:14.177Z,109.70
2022-12-23T06:29:46.509Z,101.50
2022-12-23T06:32:18.295Z,109.18
2022-12-23T06:34:55.678Z,104.95
2022-12-23T06:37:27.549Z,110.95
2022-12-23T06:39:59.847Z,107.40
2022-12-23T06:42:31.797Z,121.82
2022-12-23T06:45:03.997Z,129.75
2022-12-23T06:47:35.999Z,126.47
2022-12-23T06:50:12.139Z,126.60
2022-12-23T06:52:44.696Z,145.10
2022-12-23T06:55:16.926Z,130.20
2022-12-23T06:57:48.893Z,140.95
2022-12-23T07:00:21.795Z,113.90
2022-12-23T07:02:53.678Z,101.10
2022-12-23T07:05:35.031Z,114.38
2022-12-23T07:08:11.256Z,108.53
2022-12-23T07:10:43.705Z,112.25
2022-12-23T07:13:15.716Z,111.40
2022-12-23T07:15:48.356Z,117.25
2022-12-23T07:18:20.697Z,124.50
2022-12-23T07:20:56.276Z,127.10
2022-12-23T07:23:28.465Z,112.57
2022-12-23T07:26:01.313Z,118.57
2022-12-23T07:28:33.626Z,121.28
2022-12-23T07:31:08.859Z,133.18
2022-12-23T07:33:41.230Z,125.57
2022-12-23T07:36:16.785Z,117.55
2022-12-23T07:38:52.149Z,114.25
2022-12-23T07:41:25.085Z,111.63
2022-12-23T07:43:57.243Z,99.15
2022-12-23T07:46:30.080Z,101.95
2022-12-23T07:49:02.708Z,87.35
2022-12-23T07:51:37.927Z,95.93
2022-12-23T07:54:10.347Z,94.53
2022-12-23T07:56:43.034Z,96.35
2022-12-23T07:59:15.506Z,97.70
2022-12-23T08:01:48.241Z,100.50
2022-12-23T08:04:20.900Z,99.80
2022-12-23T08:06:56.386Z,98.50
2022-12-23T08:09:28.947Z,98.57
2022-12-23T08:12:01.713Z,101.10
2022-12-23T08:14:33.996Z,95.45
2022-12-23T08:17:06.811Z,115.43
2022-12-23T08:19:39.287Z,109.15
2022-12-23T08:22:14.509Z,105.95
2022-12-23T08:24:46.905Z,103.85
2022-12-23T08:27:19.939Z,107.22
2022-12-23T08:29:52.144Z,127.88
2022-12-23T08:32:24.881Z,108.80
2022-12-23T08:34:59.109Z,112.15
2022-12-23T08:37:34.645Z,99.10
2022-12-23T08:40:08.019Z,120.72
2022-12-23T08:42:40.953Z,114.00
2022-12-23T08:45:13.919Z,108.00
2022-12-23T08:47:46.777Z,106.55
2022-12-23T08:50:19.504Z,121.20
2022-12-23T08:52:54.939Z,109.93
2022-12-23T08:55:27.324Z,118.60
2022-12-23T08:58:00.030Z,124.75
2022-12-23T09:00:32.264Z,121.55
2022-12-23T09:03:05.479Z,124.35
2022-12-23T09:05:43.380Z,119.95
2022-12-23T09:08:18.566Z,133.88
2022-12-23T09:10:51.061Z,132.63
2022-12-23T09:13:32.743Z,107.50
2022-12-23T09:16:06.981Z,112.28
2022-12-23T09:18:40.262Z,129.25
2022-12-23T09:21:15.689Z,115.53
2022-12-23T09:23:50.920Z,113.82
2022-12-23T09:26:28.088Z,106.45
2022-12-23T09:29:01.265Z,110.90
2022-12-23T09:31:37.150Z,99.82
2022-12-23T09:34:10.433Z,94.60
2022-12-23T09:36:42.321Z,89.55
2022-12-23T09:39:17.264Z,92.70
2022-12-23T09:42:09.383Z,76.18
2022-12-23T09:44:53.400Z,76.93
2022-12-23T09:47:29.821Z,72.63
2022-12-23T09:50:06.479Z,72.45
2022-12-23T09:52:46.872Z,68.15
2022-12-23T09:55:25.900Z,77.43
2022-12-23T09:58:01.960Z,70.22
2022-12-23T10:00:42.576Z,77.05
2022-12-23T10:03:24.003Z,81.65
2022-12-23T10:06:06.067Z,91.78
2022-12-23T10:08:41.507Z,91.57
2022-12-23T10:11:20.389Z,97.93
2022-12-23T10:13:53.702Z,82.63
2022-12-23T10:16:31.046Z,79.25
2022-12-23T10:19:06.118Z,85.60
2022-12-23T10:21:47.470Z,90.03
2022-12-23T10:24:25.660Z,76.20
2022-12-23T10:27:04.604Z,71.97
2022-12-23T10:29:37.626Z,66.53
2022-12-23T10:32:23.265Z,68.10
2022-12-23T10:35:00.764Z,60.92
2022-12-23T10:37:42.286Z,56.85
2022-12-23T10:40:21.261Z,56.70
2022-12-23T10:43:06.275Z,53.35
2022-12-23T10:45:51.561Z,59.35
2022-12-23T10:48:40.348Z,50.75
2022-12-23T10:51:20.783Z,47.60
2022-12-23T10:53:56.014Z,46.10
2022-12-23T10:56:27.922Z,41.53
2022-12-23T10:59:04.504Z,40.90
2022-12-23T11:01:37.748Z,35.65
2022-12-23T11:04:12.714Z,32.90
2022-12-23T11:06:52.849Z,30.67
2022-12-23T11:09:41.740Z,30.10
2022-12-23T11:12:16.492Z,28.92
2022-12-23T11:14:55.600Z,30.20
2022-12-23T11:17:29.735Z,29.50
2022-12-23T11:20:15.713Z,32.17
2022-12-23T11:22:52.548Z,34.25
2022-12-23T11:25:34.820Z,40.90
2022-12-23T11:28:11.776Z,38.72
2022-12-23T11:30:59.151Z,46.03
2022-12-23T11:33:33.826Z,46.70
2022-12-23T11:36:10.238Z,49.50
2022-12-23T11:38:53.585Z,45.22
2022-12-23T11:41:30.257Z,45.45
2022-12-23T11:44:05.179Z,41.40
2022-12-23T11:46:40.575Z,50.17
2022-12-23T11:49:23.253Z,51.10
2022-12-23T11:52:05.522Z,47.25
2022-12-23T11:54:37.787Z,49.78
2022-12-23T11:57:18.689Z,52.35
2022-12-23T11:59:53.581Z,54.03
2022-12-23T12:02:37.381Z,57.72
2022-12-23T12:05:23.174Z,59.60
2022-12-23T12:07:56.386Z,55.15
2022-12-23T12:10:31.861Z,63.00
2022-12-23T12:13:08.510Z,57.63
2022-12-23T12:15:47.971Z,61.38
2022-12-23T12:18:25.438Z,66.82
2022-12-23T12:21:01.966Z,60.38
2022-12-23T12:23:45.161Z,58.53
2022-12-23T12:26:23.846Z,49.17
2022-12-23T12:29:04.287Z,55.03
2022-12-23T12:31:43.098Z,52.47
2022-12-23T12:34:34.767Z,43.78
2022-12-23T12:37:14.160Z,47.97
2022-12-23T12:39:52.856Z,46.45
2022-12-23T12:42:32.751Z,43.92
2022-12-23T12:45:16.751Z,35.05
2022-12-23T12:48:07.011Z,40.13
2022-12-23T12:51:01.557Z,41.97
2022-12-23T12:53:35.899Z,38.90
2022-12-23T12:56:16.414Z,35.38
2022-12-23T12:58:48.736Z,37.65
2022-12-23T13:01:36.444Z,35.08
2022-12-23T13:04:25.990Z,35.75
2022-12-23T13:07:10.411Z,33.92
2022-12-23T13:09:53.470Z,32.50
2022-12-23T13:12:35.880Z,32.45
2022-12-23T13:15:20.074Z,30.15
2022-12-23T13:18:06.338Z,28.88
2022-12-23T13:20:46.231Z,35.25
2022-12-23T13:26:34.079Z,34.67
2022-12-23T13:29:34.749Z,33.85
2022-12-23T13:32:18.917Z,34.03
2022-12-23T13:35:02.354Z,36.50
2022-12-23T13:37:43.032Z,32.58
2022-12-23T13:40:33.270Z,32.75
2022-12-23T13:43:10.411Z,35.67
2022-12-23T13:45:45.236Z,37.03
2022-12-23T13:48:37.410Z,36.10
2022-12-23T13:51:16.431Z,33.40
2022-12-23T13:54:04.837Z,34.05
2022-12-23T13:56:46.218Z,33.78
2022-12-23T13:59:20.274Z,35.08
2022-12-23T14:01:54.966Z,30.63
2022-12-23T14:04:37.387Z,33.85
2022-12-23T14:07:22.874Z,32.63
2022-12-23T14:09:58.890Z,34.05
2022-12-23T14:12:39.561Z,37.60
2022-12-23T14:15:36.657Z,35.92
2022-12-23T14:18:22.333Z,34.70
2022-12-23T14:21:00.374Z,33.17
2022-12-23T14:23:50.860Z,38.72
2022-12-23T14:26:37.372Z,40.72
2022-12-23T14:29:31.105Z,35.67
2022-12-23T14:32:03.061Z,34.28
2022-12-23T14:34:37.272Z,37.28
2022-12-23T14:37:32.656Z,33.08
2022-12-23T14:40:34.598Z,33.25
2022-12-23T14:43:35.652Z,30.02
2022-12-23T14:46:45.692Z,32.67
2022-12-23T14:49:41.241Z,26.52
2022-12-23T14:52:55.756Z,32.70
2022-12-23T14:55:47.655Z,31.55
2022-12-23T14:58:50.795Z,34.08
2022-12-23T15:01:34.151Z,27.65
2022-12-23T15:04:17.475Z,31.58
2022-12-23T15:06:52.617Z,26.95
2022-12-23T15:09:29.133Z,30.58
2022-12-23T15:12:03.446Z,32.08
2022-12-23T15:14:39.121Z,31.27
2022-12-23T15:17:32.890Z,35.22
2022-12-23T15:20:17.075Z,36.83
2022-12-23T15:22:50.285Z,34.90
2022-12-23T15:25:25.403Z,40.63
2022-12-23T15:28:01.885Z,38.47
2022-12-23T15:30:38.998Z,38.45
2022-12-23T15:33:51.840Z,37.60
2022-12-23T15:36:13.935Z,31.15
2022-12-23T15:38:45.952Z,32.90
2022-12-23T15:41:22.833Z,34.90
2022-12-23T15:43:55.292Z,35.75
2022-12-23T15:46:30.455Z,35.60
2022-12-23T15:49:06.080Z,39.08
2022-12-23T15:54:37.101Z,40.10
2022-12-23T15:57:09.605Z,39.72
2022-12-23T15:59:42.484Z,36.72
2022-12-23T16:02:58.880Z,38.42
2022-12-23T16:05:29.630Z,39.10
2022-12-23T16:08:29.197Z,39.88
2022-12-23T16:11:44.559Z,33.63
2022-12-23T16:14:35.193Z,37.97
2022-12-23T16:17:18.602Z,36.70
2022-12-23T16:19:52.316Z,36.33
2022-12-23T16:22:31.555Z,34.35
2022-12-23T16:25:31.746Z,36.33
2022-12-23T16:28:08.143Z,46.50
2022-12-23T16:30:43.494Z,40.40
2022-12-23T16:33:40.094Z,50.83
2022-12-23T16:36:20.901Z,56.70
2022-12-23T16:39:03.914Z,52.13
2022-12-23T16:41:36.651Z,54.75
2022-12-23T16:44:09.581Z,41.10
2022-12-23T16:46:46.075Z,43.10
2022-12-23T16:49:20.984Z,44.88
2022-12-23T16:51:53.673Z,34.92
2022-12-23T16:54:28.418Z,31.83
2022-12-23T16:57:00.921Z,38.75
2022-12-23T16:59:32.891Z,39.55
2022-12-23T17:02:05.191Z,37.05
2022-12-23T17:04:37.049Z,35.47
2022-12-23T17:07:12.618Z,37.45
2022-12-23T17:09:47.293Z,43.45
2022-12-23T17:12:19.895Z,45.95
2022-12-23T17:14:51.894Z,38.17
2022-12-23T17:17:26.193Z,31.73
2022-12-23T17:19:59.257Z,39.70
2022-12-23T17:22:31.958Z,38.17
2022-12-23T17:25:07.036Z,33.63
2022-12-23T17:27:39.521Z,32.08
2022-12-23T17:30:18.034Z,33.65
2022-12-23T17:32:54.736Z,34.22
2022-12-23T17:35:26.783Z,27.98
2022-12-23T17:37:58.972Z,32.20
2022-12-23T17:40:33.636Z,28.65
2022-12-23T17:43:05.993Z,30.38
2022-12-23T17:45:37.725Z,26.05
2022-12-23T17:48:17.957Z,27.10
2022-12-23T17:50:52.736Z,27.05
2022-12-23T17:53:25.148Z,29.48
2022-12-23T17:55:59.831Z,31.50
2022-12-23T17:58:32.062Z,30.60
2022-12-23T18:01:04.046Z,29.35
2022-12-23T18:03:36.422Z,28.35
2022-12-23T18:06:14.817Z,27.80
2022-12-23T18:08:47.023Z,30.77
2022-12-23T18:11:26.121Z,25.63
2022-12-23T18:13:58.579Z,27.73
2022-12-23T18:16:30.741Z,31.08
2022-12-23T18:19:03.011Z,30.98
2022-12-23T18:21:36.154Z,30.20
2022-12-23T18:24:09.769Z,30.75
2022-12-23T18:26:44.413Z,33.45
2022-12-23T18:29:31.124Z,32.90
2022-12-23T18:32:03.985Z,34.15
2022-12-23T18:34:36.312Z,34.63
2022-12-23T18:37:08.354Z,38.17
2022-12-23T18:39:40.851Z,38.92
2022-12-23T18:42:19.293Z,33.42
2022-12-23T18:44:52.179Z,37.85
2022-12-23T18:47:24.662Z,32.10
2022-12-23T18:49:57.159Z,34.90
2022-12-23T18:52:29.613Z,34.75
2022-12-23T18:55:01.960Z,36.70
2022-12-23T18:57:36.898Z,34.50
2022-12-23T19:00:14.887Z,35.17
2022-12-23T19:02:47.849Z,35.72
2022-12-23T19:05:24.491Z,40.10
2022-12-23T19:07:58.311Z,42.65
2022-12-23T19:10:33.691Z,39.92
2022-12-23T19:13:08.412Z,43.65
2022-12-23T19:15:40.742Z,43.22
2022-12-23T19:18:17.481Z,44.78
2022-12-23T19:20:51.154Z,42.13
2022-12-23T19:23:24.870Z,47.08
2022-12-23T19:25:57.135Z,46.38
2022-12-23T19:28:31.801Z,49.35
2022-12-23T19:31:04.073Z,39.83
2022-12-23T19:33:36.052Z,42.00
2022-12-23T19:36:13.124Z,36.20
2022-12-23T19:38:45.597Z,36.55
2022-12-23T19:41:18.136Z,36.28
2022-12-23T19:43:52.933Z,32.28
2022-12-23T19:46:25.402Z,35.22
2022-12-23T19:48:57.591Z,30.38
2022-12-23T19:51:30.078Z,34.10
2022-12-23T19:54:02.063Z,34.20
2022-12-23T19:56:35.731Z,35.03
2022-12-23T19:59:10.360Z,35.85
2022-12-23T20:01:42.685Z,35.40
2022-12-23T20:04:15.883Z,38.40
2022-12-23T20:06:48.435Z,36.13
2022-12-23T20:09:20.815Z,35.03
2022-12-23T20:11:53.183Z,37.22
2022-12-23T20:14:32.268Z,38.72
2022-12-23T20:17:07.037Z,39.83
2022-12-23T20:19:45.635Z,42.08
2022-12-23T20:22:18.696Z,43.90
2022-12-23T20:24:51.439Z,43.78
2022-12-23T20:27:27.860Z,55.03
2022-12-23T20:30:03.382Z,49.25
2022-12-23T20:32:35.813Z,58.72
2022-12-23T21:42:04.769Z,69.32
2022-12-23T21:47:28.534Z,63.83
2022-12-23T21:50:04.005Z,56.03
2022-12-23T21:52:54.917Z,53.80
2022-12-23T21:55:30.331Z,62.78
2022-12-23T21:58:31.337Z,47.85
2022-12-23T22:01:30.227Z,45.70
2022-12-23T22:04:07.971Z,45.95
2022-12-23T22:06:55.831Z,44.65
2022-12-23T22:09:31.004Z,48.03
2022-12-23T22:12:06.470Z,45.17
2022-12-23T22:15:33.437Z,47.13
2022-12-23T22:18:50.563Z,40.97
2022-12-23T22:21:41.463Z,40.42
2022-12-23T22:24:17.186Z,39.50
2022-12-23T22:27:01.493Z,37.30
2022-12-23T22:29:54.393Z,41.38
2022-12-23T22:32:28.844Z,40.97
2022-12-23T22:35:01.168Z,39.33
2022-12-23T22:37:33.135Z,32.20
2022-12-23T22:40:05.548Z,35.25
2022-12-23T22:42:37.349Z,34.22
2022-12-23T22:45:13.605Z,32.03
2022-12-23T22:47:51.379Z,33.58
2022-12-23T22:50:24.417Z,35.58
2022-12-23T22:52:56.322Z,31.83
2022-12-23T22:55:28.911Z,31.00
2022-12-23T22:58:00.891Z,34.15
2022-12-23T23:00:33.592Z,33.88
2022-12-23T23:03:08.599Z,29.00
2022-12-23T23:05:41.195Z,31.13
2022-12-23T23:08:14.951Z,33.47
2022-12-23T23:10:47.411Z,38.15
2022-12-23T23:13:19.494Z,35.00
2022-12-23T23:15:52.389Z,37.95
2022-12-23T23:18:27.685Z,34.45
2022-12-23T23:21:00.447Z,31.52
2022-12-23T23:23:32.738Z,32.20
2022-12-23T23:26:05.448Z,31.30
2022-12-23T23:28:37.740Z,35.08
2022-12-23T23:34:06.590Z,27.00
2022-12-23T23:36:39.128Z,27.55
2022-12-23T23:39:11.160Z,32.03
2022-12-23T23:41:44.196Z,29.63
2022-12-23T23:44:16.300Z,35.88
2022-12-23T23:46:49.042Z,28.77
2022-12-23T23:49:25.309Z,33.15
2022-12-23T23:51:57.653Z,30.27
2022-12-23T23:54:30.035Z,31.88
2022-12-23T23:57:02.730Z,32.72
2022-12-23T23:59:34.949Z,35.30
